Terminal Aerodrome Forecast
Issued by NWS Denver/Boulder, CO

Home | Current Version | Previous Version | Text Only | Print | Product List | Glossary On
Versions: 1 2 3 4 5 6 7 8 9 10 11 12 13 14 15 16 17 18 19 20 21 22 23 24 25 26 27 28 29 30 31 32 33 34 35 36 37 38
000
FTUS45 KBOU 232047 AAB
TAFDEN
TAF AMD
KDEN 232047Z 2321/2424 09012KT P6SM VCTS SCT090CB BKN150
     FM232300 24015KT P6SM SCT090 BKN150
     FM240200 20012KT P6SM FEW090 SCT150
     FM240500 20012KT P6SM FEW150 SCT220
     FM241600 VRB05KT P6SM FEW080 SCT220
     FM241800 12008KT P6SM FEW080 SCT220
     FM242100 10011KT P6SM SCT080 BKN150=

USA.gov is the U.S. government's official web portal to all federal, state and local government web resources and services.